Time;durP1;ratioP1;P1;durP2;ratioP2;P2;SDS_P1;SDS_P2;PMS_P1;PMS_P2;Temp;Humidity;BMP_temperature;BMP_pressure;BME280_temperature;BME280_humidity;BME280_pressure;Samples;Min_cycle;Max_cycle;Signal;HPM_P1;HPM_P2
2021/09/20 00:02:51;;;;;;;8.03;4.23;;;;;;;;;;10562844;28;20068;-71
2021/09/20 00:07:54;;;;;;;8.10;3.78;;;;;;;;;;10558738;28;20133;-71
2021/09/20 00:12:57;;;;;;;11.43;4.30;;;;;;;;;;10566263;28;20406;-70
2021/09/20 00:18:01;;;;;;;8.77;3.80;;;;;;;;;;10569915;27;20059;-71
2021/09/20 00:23:04;;;;;;;8.77;4.25;;;;;;;;;;10560083;28;20055;-71
2021/09/20 00:28:07;;;;;;;8.27;3.80;;;;;;;;;;10565159;28;20130;-71
2021/09/20 00:33:11;;;;;;;7.43;3.90;;;;;;;;;;10564890;28;20039;-71
2021/09/20 00:38:14;;;;;;;8.40;4.00;;;;;;;;;;10564518;28;20040;-71
2021/09/20 00:43:17;;;;;;;9.38;4.22;;;;;;;;;;10566653;28;20044;-72
2021/09/20 00:48:21;;;;;;;11.40;4.38;;;;;;;;;;10563796;28;20040;-70
2021/09/20 00:53:24;;;;;;;8.20;4.10;;;;;;;;;;10561037;28;20462;-70
2021/09/20 00:58:27;;;;;;;7.70;4.07;;;;;;;;;;10558622;28;20089;-70
2021/09/20 01:03:31;;;;;;;9.60;4.47;;;;;;;;;;10567067;28;20073;-70
2021/09/20 01:08:34;;;;;;;9.52;4.78;;;;;;;;;;10562070;28;20297;-70
2021/09/20 01:13:39;;;;;;;9.57;4.45;;;;;;;;;;10565232;28;20039;-70
2021/09/20 01:18:56;;;;;;;8.18;4.20;;;;;;;;;;10562668;28;20043;-68
2021/09/20 01:24:00;;;;;;;9.90;4.63;;;;;;;;;;10548916;28;20048;-69
2021/09/20 01:29:12;;;;;;;11.07;5.03;;;;;;;;;;10561374;28;20077;-71
2021/09/20 01:34:15;;;;;;;10.70;4.50;;;;;;;;;;10565012;28;20293;-68
2021/09/20 01:39:20;;;;;;;12.20;4.88;;;;;;;;;;10566295;28;20534;-70
2021/09/20 01:44:23;;;;;;;9.85;4.50;;;;;;;;;;10567465;28;20036;-71
2021/09/20 01:49:27;;;;;;;9.33;4.43;;;;;;;;;;10572916;28;20483;-71
2021/09/20 01:54:31;;;;;;;11.05;4.97;;;;;;;;;;10571213;28;20805;-71
2021/09/20 01:59:34;;;;;;;10.07;5.00;;;;;;;;;;10571894;28;20047;-70
2021/09/20 02:04:36;;;;;;;9.98;4.32;;;;;;;;;;10571344;28;20039;-69
2021/09/20 02:09:41;;;;;;;8.85;4.43;;;;;;;;;;10568857;28;20064;-70
2021/09/20 02:14:44;;;;;;;10.95;4.72;;;;;;;;;;10564669;28;20043;-69
2021/09/20 02:19:46;;;;;;;11.88;4.90;;;;;;;;;;10572750;28;20333;-70
2021/09/20 02:24:51;;;;;;;12.50;4.13;;;;;;;;;;10567066;28;20035;-71
2021/09/20 02:29:54;;;;;;;10.20;4.93;;;;;;;;;;10572691;28;20110;-71
2021/09/20 02:34:56;;;;;;;11.43;5.17;;;;;;;;;;10565590;28;20108;-69
2021/09/20 02:40:01;;;;;;;10.85;4.97;;;;;;;;;;10572858;28;20065;-70
2021/09/20 02:45:04;;;;;;;9.70;4.97;;;;;;;;;;10562550;28;20047;-72
2021/09/20 02:50:08;;;;;;;11.98;5.35;;;;;;;;;;10567567;28;20083;-69
2021/09/20 02:55:12;;;;;;;11.77;5.00;;;;;;;;;;10564238;28;20112;-70
2021/09/20 03:00:16;;;;;;;12.32;5.07;;;;;;;;;;10570658;28;20039;-70
2021/09/20 03:05:18;;;;;;;10.30;5.03;;;;;;;;;;10570048;28;20085;-69
2021/09/20 03:10:23;;;;;;;11.50;5.53;;;;;;;;;;10570751;28;20050;-69
2021/09/20 03:15:26;;;;;;;10.45;4.60;;;;;;;;;;10569401;28;20116;-71
2021/09/20 03:20:29;;;;;;;11.80;5.25;;;;;;;;;;10565983;28;20399;-70
2021/09/20 03:25:34;;;;;;;12.77;6.17;;;;;;;;;;10564598;28;20134;-70
2021/09/20 03:30:36;;;;;;;13.07;5.50;;;;;;;;;;10569996;28;20373;-72
2021/09/20 03:35:39;;;;;;;11.50;5.03;;;;;;;;;;10562623;28;20046;-72
2021/09/20 03:40:43;;;;;;;14.00;5.90;;;;;;;;;;10568837;28;20039;-71
2021/09/20 03:45:46;;;;;;;11.48;5.53;;;;;;;;;;10559025;28;20188;-71
2021/09/20 03:50:49;;;;;;;11.95;5.35;;;;;;;;;;10567882;28;20063;-72
2021/09/20 03:55:53;;;;;;;12.95;6.22;;;;;;;;;;10564695;28;20062;-70
2021/09/20 04:00:56;;;;;;;13.30;5.32;;;;;;;;;;10565461;28;20105;-71
2021/09/20 04:05:59;;;;;;;13.18;5.68;;;;;;;;;;10562542;28;20194;-70
2021/09/20 04:11:04;;;;;;;11.85;5.50;;;;;;;;;;10563077;28;20087;-71
2021/09/20 04:16:15;;;;;;;14.02;5.88;;;;;;;;;;10567394;28;20507;-71
2021/09/20 04:21:18;;;;;;;13.67;5.63;;;;;;;;;;10570848;28;20051;-71
2021/09/20 04:26:22;;;;;;;15.35;6.00;;;;;;;;;;10563208;28;20486;-71
2021/09/20 04:31:25;;;;;;;15.13;6.05;;;;;;;;;;10562820;28;20038;-70
2021/09/20 04:36:28;;;;;;;12.37;6.13;;;;;;;;;;10556014;28;20096;-71
2021/09/20 04:41:32;;;;;;;15.50;5.90;;;;;;;;;;10568475;28;20597;-71
2021/09/20 04:46:35;;;;;;;15.02;6.10;;;;;;;;;;10555231;28;20043;-70
2021/09/20 04:51:38;;;;;;;17.60;6.90;;;;;;;;;;10567159;28;20548;-70
2021/09/20 04:56:42;;;;;;;15.77;6.65;;;;;;;;;;10562076;28;20050;-71
2021/09/20 05:01:45;;;;;;;15.35;7.05;;;;;;;;;;10555100;28;20039;-70
2021/09/20 05:06:49;;;;;;;13.40;6.30;;;;;;;;;;10558493;28;20483;-70
2021/09/20 05:11:53;;;;;;;13.80;5.50;;;;;;;;;;10561809;28;20031;-70
2021/09/20 05:16:58;;;;;;;14.95;6.28;;;;;;;;;;10560672;28;20131;-70
2021/09/20 05:22:01;;;;;;;13.52;6.15;;;;;;;;;;10560955;28;20483;-71
2021/09/20 05:27:05;;;;;;;14.30;6.25;;;;;;;;;;10557442;28;20044;-69
2021/09/20 05:32:08;;;;;;;15.32;6.72;;;;;;;;;;10565743;28;20121;-71
2021/09/20 05:37:11;;;;;;;16.83;6.47;;;;;;;;;;10561378;28;20142;-70
2021/09/20 05:42:16;;;;;;;16.52;7.22;;;;;;;;;;10561553;28;20087;-72
2021/09/20 05:47:19;;;;;;;14.50;6.38;;;;;;;;;;10560893;28;20410;-72
2021/09/20 05:52:22;;;;;;;16.73;7.03;;;;;;;;;;10565043;28;20039;-70
2021/09/20 05:57:26;;;;;;;18.25;6.55;;;;;;;;;;10562580;28;20063;-70
2021/09/20 06:02:29;;;;;;;15.02;7.13;;;;;;;;;;10559104;28;20130;-72
2021/09/20 06:07:32;;;;;;;14.30;6.65;;;;;;;;;;10555154;28;20070;-71
2021/09/20 06:12:37;;;;;;;17.85;6.85;;;;;;;;;;10523750;28;20106;-70
2021/09/20 06:17:41;;;;;;;15.40;7.18;;;;;;;;;;10561065;28;20032;-70
2021/09/20 06:22:44;;;;;;;13.20;5.90;;;;;;;;;;10559721;28;20044;-69
2021/09/20 06:27:48;;;;;;;15.50;5.27;;;;;;;;;;10561437;28;20040;-70
2021/09/20 06:32:51;;;;;;;14.20;6.20;;;;;;;;;;10564373;28;20066;-70
2021/09/20 06:37:54;;;;;;;16.30;6.23;;;;;;;;;;10569309;28;20044;-70
2021/09/20 06:42:58;;;;;;;16.73;6.28;;;;;;;;;;10564024;28;20101;-70
2021/09/20 06:48:01;;;;;;;14.65;6.10;;;;;;;;;;10562972;28;21936;-71
2021/09/20 06:53:04;;;;;;;15.57;6.53;;;;;;;;;;10572294;28;20105;-69
2021/09/20 06:58:08;;;;;;;20.17;7.00;;;;;;;;;;10563593;28;20075;-68
2021/09/20 07:03:12;;;;;;;20.52;7.85;;;;;;;;;;10568567;28;20490;-71
2021/09/20 07:08:15;;;;;;;21.42;6.85;;;;;;;;;;10561785;28;20138;-69
2021/09/20 07:13:20;;;;;;;16.35;6.25;;;;;;;;;;10551439;28;20404;-71
2021/09/20 07:18:22;;;;;;;14.95;6.32;;;;;;;;;;10566859;28;20133;-70
2021/09/20 07:23:25;;;;;;;18.67;7.03;;;;;;;;;;10565283;28;21276;-70
2021/09/20 07:28:30;;;;;;;14.43;7.07;;;;;;;;;;10565818;28;20432;-68
2021/09/20 07:33:32;;;;;;;18.20;6.47;;;;;;;;;;10566088;28;20122;-70
2021/09/20 07:38:36;;;;;;;19.30;6.90;;;;;;;;;;10565316;28;20070;-70
2021/09/20 07:43:44;;;;;;;14.77;6.70;;;;;;;;;;10566810;28;20078;-68
2021/09/20 07:48:47;;;;;;;15.82;6.72;;;;;;;;;;10562518;28;20028;-70
2021/09/20 07:53:50;;;;;;;15.57;6.80;;;;;;;;;;10567373;28;20104;-70
2021/09/20 07:58:54;;;;;;;18.13;7.53;;;;;;;;;;10563768;28;20472;-72
2021/09/20 08:03:57;;;;;;;17.00;6.85;;;;;;;;;;10562091;27;20042;-72
2021/09/20 08:09:02;;;;;;;15.05;5.15;;;;;;;;;;10564218;28;20134;-72
2021/09/20 08:14:06;;;;;;;16.97;6.97;;;;;;;;;;10561913;28;20065;-73
2021/09/20 08:19:09;;;;;;;16.00;6.50;;;;;;;;;;10566019;28;22069;-69
2021/09/20 08:24:12;;;;;;;16.40;7.20;;;;;;;;;;10561996;28;20495;-69
2021/09/20 08:29:16;;;;;;;13.50;5.80;;;;;;;;;;10561977;28;20040;-71
2021/09/20 08:34:19;;;;;;;13.05;6.00;;;;;;;;;;10562348;28;20184;-71
2021/09/20 08:39:22;;;;;;;15.57;6.05;;;;;;;;;;10559659;28;20051;-72
2021/09/20 08:44:26;;;;;;;8.73;3.73;;;;;;;;;;10554088;27;20124;-70
2021/09/20 08:49:29;;;;;;;9.10;3.53;;;;;;;;;;10560747;28;20091;-71
2021/09/20 08:54:32;;;;;;;10.32;4.55;;;;;;;;;;10572634;27;20043;-71
2021/09/20 08:59:36;;;;;;;12.77;5.47;;;;;;;;;;10556780;28;20036;-73
2021/09/20 09:04:40;;;;;;;11.45;5.35;;;;;;;;;;10559513;28;20479;-72
2021/09/20 09:09:44;;;;;;;11.32;5.50;;;;;;;;;;10561367;28;20036;-70
2021/09/20 09:14:49;;;;;;;10.13;5.18;;;;;;;;;;10560042;28;20114;-72
2021/09/20 09:19:53;;;;;;;11.50;5.47;;;;;;;;;;10558666;28;20035;-72
2021/09/20 09:24:58;;;;;;;7.82;4.25;;;;;;;;;;10555876;28;20067;-72
2021/09/20 09:30:05;;;;;;;7.18;3.97;;;;;;;;;;10552524;28;20096;-72
2021/09/20 09:35:09;;;;;;;9.77;5.00;;;;;;;;;;10558380;28;20444;-70
2021/09/20 09:40:19;;;;;;;9.95;4.97;;;;;;;;;;10564344;28;20044;-73
2021/09/20 09:45:26;;;;;;;10.10;5.00;;;;;;;;;;10557708;28;20044;-73
2021/09/20 09:50:29;;;;;;;11.60;4.80;;;;;;;;;;10560458;28;20039;-73
2021/09/20 09:55:32;;;;;;;;;;;;;;;;;;10557762;28;20431;-71
2021/09/20 10:00:36;;;;;;;8.95;4.72;;;;;;;;;;10562599;28;19926;-72
2021/09/20 10:05:39;;;;;;;8.00;3.92;;;;;;;;;;10569142;28;20082;-72
2021/09/20 10:10:41;;;;;;;;;;;;;;;;;;10564916;28;20035;-72
2021/09/20 10:15:46;;;;;;;8.23;4.10;;;;;;;;;;10563060;28;19926;-73
2021/09/20 10:20:49;;;;;;;7.72;4.43;;;;;;;;;;10564096;28;20063;-70
2021/09/20 10:25:52;;;;;;;4.68;2.67;;;;;;;;;;10566044;28;20495;-72
2021/09/20 10:30:56;;;;;;;7.43;4.57;;;;;;;;;;10568674;28;20028;-72
2021/09/20 10:35:59;;;;;;;9.20;4.78;;;;;;;;;;10567124;28;20100;-71
2021/09/20 10:41:10;;;;;;;6.80;3.78;;;;;;;;;;10565164;28;20061;-71
2021/09/20 10:46:24;;;;;;;7.25;3.65;;;;;;;;;;10557702;28;20044;-71
2021/09/20 10:51:29;;;;;;;7.15;3.97;;;;;;;;;;10570501;28;20127;-73
2021/09/20 10:56:34;;;;;;;8.02;4.60;;;;;;;;;;10562815;28;20121;-73
2021/09/20 11:01:39;;;;;;;8.55;4.55;;;;;;;;;;10558011;28;20547;-72
2021/09/20 11:06:44;;;;;;;8.63;4.57;;;;;;;;;;10565013;28;20036;-70
2021/09/20 11:11:47;;;;;;;8.63;4.53;;;;;;;;;;10562652;28;20509;-70
2021/09/20 11:16:53;;;;;;;9.18;4.60;;;;;;;;;;10564637;28;20063;-72
2021/09/20 11:22:19;;;;;;;11.30;5.03;;;;;;;;;;10569091;28;20031;-71
2021/09/20 11:27:27;;;;;;;9.27;4.50;;;;;;;;;;10555942;28;20363;-72
2021/09/20 11:32:31;;;;;;;8.73;4.30;;;;;;;;;;10562059;28;20703;-72
2021/09/20 11:37:36;;;;;;;10.25;4.95;;;;;;;;;;10565542;28;20035;-71
2021/09/20 11:42:44;;;;;;;8.50;4.50;;;;;;;;;;10569301;28;20142;-72
2021/09/20 11:47:49;;;;;;;12.13;4.72;;;;;;;;;;10561529;28;20096;-72
2021/09/20 11:52:52;;;;;;;9.70;4.57;;;;;;;;;;10563685;28;20047;-70
2021/09/20 11:57:55;;;;;;;;;;;;;;;;;;10567244;28;20040;-71
2021/09/20 12:03:00;;;;;;;9.60;4.60;;;;;;;;;;10564603;28;20015;-71
2021/09/20 12:08:05;;;;;;;11.55;4.75;;;;;;;;;;10555762;28;20122;-71
2021/09/20 12:13:09;;;;;;;11.23;4.95;;;;;;;;;;10558948;28;20044;-71
2021/09/20 12:18:14;;;;;;;11.25;5.20;;;;;;;;;;10562325;28;20131;-71
2021/09/20 12:23:18;;;;;;;10.32;5.00;;;;;;;;;;10564145;28;20111;-70
2021/09/20 12:28:22;;;;;;;14.15;5.57;;;;;;;;;;10562389;28;20431;-70
2021/09/20 12:33:27;;;;;;;9.65;4.60;;;;;;;;;;10549095;28;20064;-71
2021/09/20 12:38:34;;;;;;;11.18;5.55;;;;;;;;;;10564875;28;20074;-72
2021/09/20 12:43:37;;;;;;;13.45;5.65;;;;;;;;;;10562879;28;20074;-69
2021/09/20 12:48:42;;;;;;;10.98;5.07;;;;;;;;;;10559902;28;20214;-71
2021/09/20 12:53:48;;;;;;;10.02;5.50;;;;;;;;;;10561088;28;20032;-72
2021/09/20 12:58:51;;;;;;;9.98;5.18;;;;;;;;;;10539335;28;20043;-71
2021/09/20 13:04:01;;;;;;;9.55;4.85;;;;;;;;;;10564241;28;20072;-70
2021/09/20 13:09:06;;;;;;;9.90;5.30;;;;;;;;;;10559934;28;20051;-72
2021/09/20 13:14:19;;;;;;;11.18;5.10;;;;;;;;;;10552699;28;20491;-73
2021/09/20 13:19:23;;;;;;;8.65;4.30;;;;;;;;;;10564339;28;20127;-70
2021/09/20 13:24:31;;;;;;;9.20;4.55;;;;;;;;;;10555789;28;20123;-72
2021/09/20 13:29:34;;;;;;;9.15;5.07;;;;;;;;;;10560326;28;20431;-72
2021/09/20 13:34:38;;;;;;;10.57;4.95;;;;;;;;;;10557146;28;20040;-72
2021/09/20 13:39:41;;;;;;;9.30;5.20;;;;;;;;;;10566664;28;20066;-72
2021/09/20 13:44:44;;;;;;;7.25;4.20;;;;;;;;;;10565074;28;20457;-72
2021/09/20 13:49:48;;;;;;;9.35;4.53;;;;;;;;;;10565422;28;20063;-71
2021/09/20 13:54:51;;;;;;;8.65;3.92;;;;;;;;;;10565549;28;20051;-72
2021/09/20 13:59:56;;;;;;;8.05;3.90;;;;;;;;;;10569105;28;20458;-72
2021/09/20 14:05:01;;;;;;;9.52;4.88;;;;;;;;;;10568803;28;20044;-70
2021/09/20 14:10:05;;;;;;;7.63;4.00;;;;;;;;;;10569668;28;20088;-71
2021/09/20 14:15:11;;;;;;;8.00;4.43;;;;;;;;;;10562342;28;20156;-70
2021/09/20 14:20:16;;;;;;;7.50;4.10;;;;;;;;;;10571565;28;20108;-71
2021/09/20 14:25:20;;;;;;;7.75;4.50;;;;;;;;;;10566556;28;20043;-71
2021/09/20 14:30:23;;;;;;;7.45;4.10;;;;;;;;;;10568760;28;20044;-70
2021/09/20 14:35:27;;;;;;;7.60;3.83;;;;;;;;;;10566650;28;20070;-71
2021/09/20 14:40:32;;;;;;;9.05;4.05;;;;;;;;;;10571544;28;20044;-72
2021/09/20 14:45:35;;;;;;;9.43;4.60;;;;;;;;;;10566523;28;20051;-71
2021/09/20 14:50:39;;;;;;;9.05;4.20;;;;;;;;;;10566515;28;20038;-72
2021/09/20 14:55:42;;;;;;;10.88;4.60;;;;;;;;;;10564674;28;20036;-69
2021/09/20 15:00:45;;;;;;;6.43;3.67;;;;;;;;;;10560246;28;20662;-71
2021/09/20 15:05:52;;;;;;;7.97;3.97;;;;;;;;;;10569016;28;20053;-71
2021/09/20 15:10:55;;;;;;;9.35;5.20;;;;;;;;;;10559675;28;20054;-70
2021/09/20 15:15:58;;;;;;;11.30;4.50;;;;;;;;;;10582758;27;20114;-71
2021/09/20 15:21:05;;;;;;;8.32;4.45;;;;;;;;;;10560255;27;20044;-71
2021/09/20 15:26:08;;;;;;;8.68;3.90;;;;;;;;;;10571152;27;20043;-69
2021/09/20 15:31:10;;;;;;;9.45;4.22;;;;;;;;;;10582377;27;20047;-69
2021/09/20 15:36:15;;;;;;;7.88;3.97;;;;;;;;;;10583270;27;20134;-71
2021/09/20 15:41:18;;;;;;;9.02;4.40;;;;;;;;;;10585675;27;20072;-70
2021/09/20 15:46:21;;;;;;;8.30;3.78;;;;;;;;;;10579781;27;20047;-71
2021/09/20 15:51:26;;;;;;;7.55;3.80;;;;;;;;;;10576382;27;20038;-71
2021/09/20 15:56:28;;;;;;;8.48;4.00;;;;;;;;;;10591118;27;20042;-72
2021/09/20 16:01:31;;;;;;;7.93;3.70;;;;;;;;;;10571712;27;20039;-72
2021/09/20 16:06:37;;;;;;;8.27;4.22;;;;;;;;;;10571656;27;20035;-72
2021/09/20 16:11:41;;;;;;;9.27;4.20;;;;;;;;;;10571139;27;20101;-72
2021/09/20 16:16:44;;;;;;;7.82;3.50;;;;;;;;;;10564602;28;20072;-71
2021/09/20 16:21:49;;;;;;;8.90;3.97;;;;;;;;;;10572054;27;20091;-72
2021/09/20 16:26:51;;;;;;;8.10;3.90;;;;;;;;;;10566293;27;20297;-71
2021/09/20 16:31:54;;;;;;;9.38;3.80;;;;;;;;;;10565820;27;20055;-73
2021/09/20 16:36:59;;;;;;;7.57;3.72;;;;;;;;;;10567516;27;20036;-71
2021/09/20 16:42:02;;;;;;;8.05;3.85;;;;;;;;;;10560602;28;20078;-72
2021/09/20 16:47:05;;;;;;;8.50;3.60;;;;;;;;;;10558981;27;20806;-72
2021/09/20 16:52:09;;;;;;;9.30;4.40;;;;;;;;;;10562159;28;20158;-72
2021/09/20 16:57:12;;;;;;;8.73;3.53;;;;;;;;;;10562964;28;20047;-71
2021/09/20 17:02:15;;;;;;;7.90;3.73;;;;;;;;;;10564026;28;20100;-71
2021/09/20 17:07:20;;;;;;;8.70;3.85;;;;;;;;;;10555822;28;20044;-73
2021/09/20 17:12:23;;;;;;;10.10;3.58;;;;;;;;;;10558746;28;20119;-73
2021/09/20 17:17:27;;;;;;;9.75;4.10;;;;;;;;;;10560976;28;20040;-72
2021/09/20 17:22:31;;;;;;;8.60;3.42;;;;;;;;;;10562413;28;20104;-72
2021/09/20 17:27:34;;;;;;;7.07;3.10;;;;;;;;;;10557874;28;20047;-74
2021/09/20 17:32:38;;;;;;;9.93;4.20;;;;;;;;;;10558914;28;20462;-72
2021/09/20 17:37:42;;;;;;;9.23;3.93;;;;;;;;;;10553458;28;20513;-73
2021/09/20 17:42:45;;;;;;;8.90;3.72;;;;;;;;;;10540685;28;20082;-72
2021/09/20 17:47:49;;;;;;;11.27;4.05;;;;;;;;;;10556140;28;20428;-73
2021/09/20 17:52:53;;;;;;;10.95;4.65;;;;;;;;;;10550289;28;20047;-72
2021/09/20 17:57:56;;;;;;;12.85;4.45;;;;;;;;;;10557207;28;20101;-71
2021/09/20 18:02:59;;;;;;;12.10;4.40;;;;;;;;;;10561061;28;20414;-72
2021/09/20 18:08:04;;;;;;;15.20;4.60;;;;;;;;;;10562121;28;20122;-70
2021/09/20 18:13:07;;;;;;;8.98;4.20;;;;;;;;;;10557890;28;20065;-69
2021/09/20 18:18:09;;;;;;;12.10;3.73;;;;;;;;;;10565511;28;20119;-71
2021/09/20 18:23:14;;;;;;;13.45;5.18;;;;;;;;;;10573095;28;20047;-74
2021/09/20 18:28:17;;;;;;;10.98;4.72;;;;;;;;;;10562455;28;20100;-72
2021/09/20 18:33:19;;;;;;;9.13;4.33;;;;;;;;;;10570384;28;20048;-73
2021/09/20 18:38:24;;;;;;;15.32;5.00;;;;;;;;;;10575953;27;20036;-73
2021/09/20 18:43:27;;;;;;;12.25;5.07;;;;;;;;;;10576373;27;20110;-73
2021/09/20 18:48:29;;;;;;;14.53;5.27;;;;;;;;;;10577775;27;20432;-73
2021/09/20 18:53:34;;;;;;;13.18;5.32;;;;;;;;;;10576813;27;20043;-72
2021/09/20 18:58:37;;;;;;;12.95;5.35;;;;;;;;;;10571696;27;20051;-72
2021/09/20 19:03:39;;;;;;;9.95;4.80;;;;;;;;;;10577146;27;20059;-72
2021/09/20 19:08:44;;;;;;;13.90;4.97;;;;;;;;;;10575089;27;20038;-71
2021/09/20 19:13:47;;;;;;;13.15;5.78;;;;;;;;;;10579216;27;20632;-71
2021/09/20 19:19:03;;;;;;;11.52;5.43;;;;;;;;;;10576486;27;20108;-72
2021/09/20 19:24:07;;;;;;;9.90;4.45;;;;;;;;;;10559334;27;20039;-72
2021/09/20 19:29:10;;;;;;;12.85;5.40;;;;;;;;;;10558150;28;20101;-72
2021/09/20 19:34:13;;;;;;;13.07;5.33;;;;;;;;;;10570208;28;20089;-71
2021/09/20 19:39:17;;;;;;;9.25;4.25;;;;;;;;;;10569936;28;20046;-71
2021/09/20 19:44:20;;;;;;;11.82;5.03;;;;;;;;;;10562734;28;20040;-71
2021/09/20 19:49:23;;;;;;;12.43;5.40;;;;;;;;;;10569730;28;20051;-73
2021/09/20 19:54:28;;;;;;;12.57;5.18;;;;;;;;;;10570089;28;20058;-71
2021/09/20 19:59:30;;;;;;;14.18;5.80;;;;;;;;;;10570476;28;20043;-72
2021/09/20 20:04:33;;;;;;;13.85;5.85;;;;;;;;;;10569189;28;20034;-72
2021/09/20 20:09:40;;;;;;;11.27;5.18;;;;;;;;;;10568810;28;20054;-75
2021/09/20 20:14:43;;;;;;;12.45;5.40;;;;;;;;;;10566688;28;20042;-73
2021/09/20 20:19:45;;;;;;;12.83;5.30;;;;;;;;;;10567624;28;20130;-73
2021/09/20 20:24:50;;;;;;;13.73;5.85;;;;;;;;;;10561065;28;20122;-72
2021/09/20 20:29:53;;;;;;;13.27;5.25;;;;;;;;;;10565886;27;20038;-72
2021/09/20 20:34:55;;;;;;;12.18;4.97;;;;;;;;;;10565954;28;20124;-72
2021/09/20 20:40:00;;;;;;;13.82;5.05;;;;;;;;;;10567324;28;20047;-72
2021/09/20 20:45:03;;;;;;;22.20;10.65;;;;;;;;;;10556261;27;20047;-73
2021/09/20 20:50:07;;;;;;;12.27;4.88;;;;;;;;;;10567284;28;20108;-70
2021/09/20 20:55:11;;;;;;;15.02;5.03;;;;;;;;;;10564494;28;20064;-71
2021/09/20 21:00:14;;;;;;;12.57;5.45;;;;;;;;;;10561475;28;20473;-70
2021/09/20 21:05:17;;;;;;;13.10;5.20;;;;;;;;;;10564197;28;20092;-71
2021/09/20 21:10:26;;;;;;;12.60;4.60;;;;;;;;;;10553831;28;20139;-71
2021/09/20 21:15:29;;;;;;;11.10;5.13;;;;;;;;;;10558172;28;20047;-72
2021/09/20 21:20:32;;;;;;;10.63;4.93;;;;;;;;;;10564249;28;20078;-72
2021/09/20 21:25:36;;;;;;;14.30;5.53;;;;;;;;;;10559154;28;20031;-71
2021/09/20 21:30:46;;;;;;;11.48;4.43;;;;;;;;;;10563743;28;20048;-73
2021/09/20 21:35:49;;;;;;;12.38;5.53;;;;;;;;;;10562968;28;20107;-71
2021/09/20 21:40:54;;;;;;;11.85;4.70;;;;;;;;;;10566812;28;20388;-69
2021/09/20 21:45:57;;;;;;;12.98;4.53;;;;;;;;;;10560468;28;20089;-70
2021/09/20 21:51:00;;;;;;;13.70;5.27;;;;;;;;;;10558334;28;20043;-71
2021/09/20 21:56:04;;;;;;;13.50;5.05;;;;;;;;;;10567532;28;20050;-72
2021/09/20 22:01:07;;;;;;;14.40;5.78;;;;;;;;;;10572655;28;20409;-72
2021/09/20 22:06:10;;;;;;;11.43;5.20;;;;;;;;;;10570811;28;20202;-72
2021/09/20 22:11:14;;;;;;;14.20;5.05;;;;;;;;;;10574534;28;20039;-71
2021/09/20 22:16:17;;;;;;;10.68;5.18;;;;;;;;;;10572025;28;20529;-72
2021/09/20 22:21:20;;;;;;;10.97;4.73;;;;;;;;;;10569865;28;20487;-71
2021/09/20 22:26:26;;;;;;;12.20;4.80;;;;;;;;;;10563976;28;20576;-71
2021/09/20 22:31:30;;;;;;;11.75;5.13;;;;;;;;;;10569654;28;20406;-69
2021/09/20 22:36:33;;;;;;;10.70;4.70;;;;;;;;;;10568191;28;20092;-70
2021/09/20 22:41:37;;;;;;;11.55;4.95;;;;;;;;;;10574310;28;20123;-71
2021/09/20 22:46:40;;;;;;;11.25;5.03;;;;;;;;;;10568577;28;20040;-72
2021/09/20 22:51:43;;;;;;;13.60;4.65;;;;;;;;;;10570279;28;20684;-70
2021/09/20 22:56:47;;;;;;;12.50;5.28;;;;;;;;;;10569244;28;20068;-71
2021/09/20 23:01:50;;;;;;;12.55;4.80;;;;;;;;;;10570342;28;20519;-70
2021/09/20 23:06:53;;;;;;;12.50;4.93;;;;;;;;;;10567526;28;20071;-72
2021/09/20 23:11:57;;;;;;;11.77;5.10;;;;;;;;;;10566340;28;20070;-71
2021/09/20 23:17:00;;;;;;;11.75;4.95;;;;;;;;;;10567432;28;20100;-73
2021/09/20 23:22:04;;;;;;;12.40;5.18;;;;;;;;;;10569315;28;20452;-71
2021/09/20 23:27:08;;;;;;;12.38;4.72;;;;;;;;;;10569287;28;20771;-71
2021/09/20 23:32:11;;;;;;;10.30;4.50;;;;;;;;;;10568532;28;20047;-71
2021/09/20 23:37:13;;;;;;;13.68;4.85;;;;;;;;;;10567506;28;20123;-69
2021/09/20 23:42:18;;;;;;;14.30;5.67;;;;;;;;;;10571521;28;20105;-70
2021/09/20 23:47:21;;;;;;;11.77;4.65;;;;;;;;;;10561627;28;20039;-70
2021/09/20 23:52:24;;;;;;;14.30;5.32;;;;;;;;;;10569613;28;20130;-71
2021/09/20 23:57:28;;;;;;;13.27;4.75;;;;;;;;;;10567860;28;20047;-70
